Terminal Aerodrome Forecast
Issued by NWS Louisville, KY

Home | Current Version | Previous Version | Text Only | Print | Product List | Glossary On
Versions: 1 2 3 4 5 6 7 8 9 10 11 12 13
938
FTUS43 KLMK 250523
TAFLEX
TAF
KLEX 250523Z 2506/2606 20007KT P6SM SCT250
     FM251400 23010KT P6SM SCT040
     FM260000 22004KT P6SM SCT250=

USA.gov is the U.S. government's official web portal to all federal, state and local government web resources and services.